ADDS - METARS form results

Aviation Digital Data Service (ADDS)

Output produced by METARs form (0009 UTC 11 December 2018)
found at http://aviationweather.gov/metar/data/
 
METAR text: KJOT 102355Z AUTO 21003KT 5SM BR CLR M02/M03 A3019 RMK AO2 T10171026 11008 21042
Conditions at: KJOT (JOLIET , IL, US) observed 2355 UTC 10 December 2018
Temperature: -1.7°C (29°F)
Dewpoint: -2.6°C (27°F) [RH = 94%]
Pressure (altimeter): 30.19 inches Hg (1022.4 mb)
Winds: from the SSW (210 degrees) at 3 MPH (3 knots; 1.5 m/s)
Visibility: 5 miles ( 8 km)
Ceiling: at least 12,000 feet AGL
Clouds: sky clear below 12,000 feet AGL
Weather: BR  (mist)

METAR text: KJOT 102335Z AUTO 20003KT 5SM BR CLR M01/M03 A3020 RMK AO2 T10151027
Conditions at: KJOT (JOLIET , IL, US) observed 2335 UTC 10 December 2018
Temperature: -1.5°C (29°F)
Dewpoint: -2.7°C (27°F) [RH = 92%]
Pressure (altimeter): 30.20 inches Hg (1022.8 mb)
Winds: from the SSW (200 degrees) at 3 MPH (3 knots; 1.5 m/s)
Visibility: 5 miles ( 8 km)
Ceiling: at least 12,000 feet AGL
Clouds: sky clear below 12,000 feet AGL
Weather: BR  (mist)

METAR text: KJOT 102315Z AUTO 19004KT 5SM BR CLR M02/M03 A3020 RMK AO2 T10181030
Conditions at: KJOT (JOLIET , IL, US) observed 2315 UTC 10 December 2018
Temperature: -1.8°C (29°F)
Dewpoint: -3.0°C (27°F) [RH = 91%]
Pressure (altimeter): 30.20 inches Hg (1022.8 mb)
Winds: from the S (190 degrees) at 5 MPH (4 knots; 2.1 m/s)
Visibility: 5 miles ( 8 km)
Ceiling: at least 12,000 feet AGL
Clouds: sky clear below 12,000 feet AGL
Weather: BR  (mist)